sensor_id;sensor_type;location;lat;lon;timestamp;pressure;altitude;pressure_sealevel;temperature
30765;BMP180;494;48.744;10.106;2023-11-18T00:01:23;96252.00;;;6.00
30765;BMP180;494;48.744;10.106;2023-11-18T00:04:32;96364.00;;;6.70
30765;BMP180;494;48.744;10.106;2023-11-18T00:07:32;96166.00;;;6.80
30765;BMP180;494;48.744;10.106;2023-11-18T00:10:10;95787.00;;;6.90
30765;BMP180;494;48.744;10.106;2023-11-18T00:13:13;96446.00;;;7.10
30765;BMP180;494;48.744;10.106;2023-11-18T00:16:26;95986.00;;;6.90
30765;BMP180;494;48.744;10.106;2023-11-18T00:19:33;96232.00;;;7.00
30765;BMP180;494;48.744;10.106;2023-11-18T00:23:08;95815.00;;;7.10
30765;BMP180;494;48.744;10.106;2023-11-18T00:25:58;96382.00;;;7.00
30765;BMP180;494;48.744;10.106;2023-11-18T00:28:37;96332.00;;;7.30
30765;BMP180;494;48.744;10.106;2023-11-18T00:31:24;96011.00;;;7.20
30765;BMP180;494;48.744;10.106;2023-11-18T00:34:17;96046.00;;;5.40
30765;BMP180;494;48.744;10.106;2023-11-18T00:37:25;95959.00;;;7.20
30765;BMP180;494;48.744;10.106;2023-11-18T00:40:31;95907.00;;;7.10
30765;BMP180;494;48.744;10.106;2023-11-18T00:43:08;96364.00;;;7.30
30765;BMP180;494;48.744;10.106;2023-11-18T00:45:49;96275.00;;;7.40
30765;BMP180;494;48.744;10.106;2023-11-18T00:48:25;96196.00;;;5.60
30765;BMP180;494;48.744;10.106;2023-11-18T00:51:12;95850.00;;;7.20
30765;BMP180;494;48.744;10.106;2023-11-18T00:54:30;96071.00;;;7.30
30765;BMP180;494;48.744;10.106;2023-11-18T01:05:20;95930.00;;;7.30
30765;BMP180;494;48.744;10.106;2023-11-18T01:08:39;96387.00;;;5.50
30765;BMP180;494;48.744;10.106;2023-11-18T01:11:45;96417.00;;;7.60
30765;BMP180;494;48.744;10.106;2023-11-18T01:14:53;95937.00;;;7.40
30765;BMP180;494;48.744;10.106;2023-11-18T01:21:16;96506.00;;;7.50
30765;BMP180;494;48.744;10.106;2023-11-18T01:24:09;96378.00;;;7.60
30765;BMP180;494;48.744;10.106;2023-11-18T01:27:15;96294.00;;;7.70
30765;BMP180;494;48.744;10.106;2023-11-18T01:29:54;96313.00;;;7.40
30765;BMP180;494;48.744;10.106;2023-11-18T01:32:54;96394.00;;;7.30
30765;BMP180;494;48.744;10.106;2023-11-18T01:36:09;96389.00;;;7.30
30765;BMP180;494;48.744;10.106;2023-11-18T01:57:45;96395.00;;;7.70
30765;BMP180;494;48.744;10.106;2023-11-18T02:00:47;96283.00;;;7.90
30765;BMP180;494;48.744;10.106;2023-11-18T02:03:43;95918.00;;;7.70
30765;BMP180;494;48.744;10.106;2023-11-18T02:06:47;96401.00;;;7.60
30765;BMP180;494;48.744;10.106;2023-11-18T02:09:47;96557.00;;;7.80
30765;BMP180;494;48.744;10.106;2023-11-18T02:12:55;96569.00;;;7.90
30765;BMP180;494;48.744;10.106;2023-11-18T02:15:41;95834.00;;;7.90
30765;BMP180;494;48.744;10.106;2023-11-18T02:18:18;95974.00;;;7.80
30765;BMP180;494;48.744;10.106;2023-11-18T02:21:20;96396.00;;;8.10
30765;BMP180;494;48.744;10.106;2023-11-18T02:24:00;96415.00;;;7.90
30765;BMP180;494;48.744;10.106;2023-11-18T02:31:04;95626.00;;;8.00
30765;BMP180;494;48.744;10.106;2023-11-18T02:33:54;95804.00;;;6.60
30765;BMP180;494;48.744;10.106;2023-11-18T02:36:51;96373.00;;;7.90
30765;BMP180;494;48.744;10.106;2023-11-18T02:39:51;96208.00;;;8.00
30765;BMP180;494;48.744;10.106;2023-11-18T02:42:37;96418.00;;;7.70
30765;BMP180;494;48.744;10.106;2023-11-18T02:45:22;96418.00;;;7.10
30765;BMP180;494;48.744;10.106;2023-11-18T02:48:06;96415.00;;;7.80
30765;BMP180;494;48.744;10.106;2023-11-18T02:51:12;96413.00;;;7.70
30765;BMP180;494;48.744;10.106;2023-11-18T02:53:46;95941.00;;;7.60
30765;BMP180;494;48.744;10.106;2023-11-18T02:56:33;96038.00;;;6.40
30765;BMP180;494;48.744;10.106;2023-11-18T02:59:31;96409.00;;;7.90
30765;BMP180;494;48.744;10.106;2023-11-18T03:02:12;96504.00;;;8.00
30765;BMP180;494;48.744;10.106;2023-11-18T03:04:59;95977.00;;;7.30
30765;BMP180;494;48.744;10.106;2023-11-18T03:07:42;95989.00;;;8.10
30765;BMP180;494;48.744;10.106;2023-11-18T03:13:29;96409.00;;;7.80
30765;BMP180;494;48.744;10.106;2023-11-18T03:16:19;96427.00;;;7.80
30765;BMP180;494;48.744;10.106;2023-11-18T03:19:10;96421.00;;;8.00
30765;BMP180;494;48.744;10.106;2023-11-18T03:21:56;96434.00;;;8.00
30765;BMP180;494;48.744;10.106;2023-11-18T03:24:31;95980.00;;;8.20
30765;BMP180;494;48.744;10.106;2023-11-18T03:27:12;96244.00;;;8.20
30765;BMP180;494;48.744;10.106;2023-11-18T03:29:51;96387.00;;;8.10
30765;BMP180;494;48.744;10.106;2023-11-18T03:32:51;96392.00;;;8.10
30765;BMP180;494;48.744;10.106;2023-11-18T03:35:26;96191.00;;;7.30
30765;BMP180;494;48.744;10.106;2023-11-18T03:41:33;95890.00;;;8.10
30765;BMP180;494;48.744;10.106;2023-11-18T03:44:08;95860.00;;;7.90
30765;BMP180;494;48.744;10.106;2023-11-18T03:46:56;95852.00;;;8.00
30765;BMP180;494;48.744;10.106;2023-11-18T03:49:36;96356.00;;;8.00
30765;BMP180;494;48.744;10.106;2023-11-18T03:52:09;96420.00;;;7.90
30765;BMP180;494;48.744;10.106;2023-11-18T03:55:21;96430.00;;;7.90
30765;BMP180;494;48.744;10.106;2023-11-18T03:58:14;96386.00;;;7.80
30765;BMP180;494;48.744;10.106;2023-11-18T04:00:47;95976.00;;;7.40
30765;BMP180;494;48.744;10.106;2023-11-18T04:03:35;95802.00;;;7.90
30765;BMP180;494;48.744;10.106;2023-11-18T04:06:24;95900.00;;;7.60
30765;BMP180;494;48.744;10.106;2023-11-18T04:09:16;96448.00;;;7.90
30765;BMP180;494;48.744;10.106;2023-11-18T04:12:03;96408.00;;;8.00
30765;BMP180;494;48.744;10.106;2023-11-18T04:18:03;95909.00;;;8.00
30765;BMP180;494;48.744;10.106;2023-11-18T04:20:46;95983.00;;;8.00
30765;BMP180;494;48.744;10.106;2023-11-18T04:23:23;96423.00;;;7.70
30765;BMP180;494;48.744;10.106;2023-11-18T04:26:02;95996.00;;;7.30
30765;BMP180;494;48.744;10.106;2023-11-18T04:28:37;95906.00;;;7.80
30765;BMP180;494;48.744;10.106;2023-11-18T04:31:12;95987.00;;;6.30
30765;BMP180;494;48.744;10.106;2023-11-18T04:34:06;96215.00;;;7.80
30765;BMP180;494;48.744;10.106;2023-11-18T04:36:53;96435.00;;;7.50
30765;BMP180;494;48.744;10.106;2023-11-18T04:43:25;96434.00;;;7.90
30765;BMP180;494;48.744;10.106;2023-11-18T05:13:00;96425.00;;;8.00
30765;BMP180;494;48.744;10.106;2023-11-18T05:15:58;96005.00;;;7.80
30765;BMP180;494;48.744;10.106;2023-11-18T05:19:32;95988.00;;;7.80
30765;BMP180;494;48.744;10.106;2023-11-18T05:22:33;96434.00;;;7.80
30765;BMP180;494;48.744;10.106;2023-11-18T05:25:44;96433.00;;;7.60
30765;BMP180;494;48.744;10.106;2023-11-18T07:20:28;96460.00;;;7.00
30765;BMP180;494;48.744;10.106;2023-11-18T07:23:29;96465.00;;;6.60
30765;BMP180;494;48.744;10.106;2023-11-18T07:28:03;96462.00;;;7.30
30765;BMP180;494;48.744;10.106;2023-11-18T07:43:25;96512.00;;;8.00
30765;BMP180;494;48.744;10.106;2023-11-18T07:47:08;96483.00;;;8.50
30765;BMP180;494;48.744;10.106;2023-11-18T07:49:58;96270.00;;;9.10
30765;BMP180;494;48.744;10.106;2023-11-18T07:53:02;96493.00;;;9.40
30765;BMP180;494;48.744;10.106;2023-11-18T07:55:50;96556.00;;;9.50
30765;BMP180;494;48.744;10.106;2023-11-18T08:06:54;96103.00;;;8.70
30765;BMP180;494;48.744;10.106;2023-11-18T08:09:43;96499.00;;;7.90
30765;BMP180;494;48.744;10.106;2023-11-18T08:12:19;96488.00;;;9.30
30765;BMP180;494;48.744;10.106;2023-11-18T08:15:16;96514.00;;;9.60
30765;BMP180;494;48.744;10.106;2023-11-18T08:18:03;96158.00;;;9.50
30765;BMP180;494;48.744;10.106;2023-11-18T08:20:36;96074.00;;;9.90
30765;BMP180;494;48.744;10.106;2023-11-18T08:23:29;96457.00;;;8.00
30765;BMP180;494;48.744;10.106;2023-11-18T08:26:15;96523.00;;;9.70
30765;BMP180;494;48.744;10.106;2023-11-18T08:41:43;96034.00;;;8.80
30765;BMP180;494;48.744;10.106;2023-11-18T08:45:06;96387.00;;;9.00
30765;BMP180;494;48.744;10.106;2023-11-18T08:48:12;96454.00;;;9.00
30765;BMP180;494;48.744;10.106;2023-11-18T08:51:09;96384.00;;;7.60
30765;BMP180;494;48.744;10.106;2023-11-18T08:54:10;96375.00;;;9.30
30765;BMP180;494;48.744;10.106;2023-11-18T09:38:25;96457.00;;;9.70
30765;BMP180;494;48.744;10.106;2023-11-18T09:41:29;96463.00;;;9.80
30765;BMP180;494;48.744;10.106;2023-11-18T09:44:28;96605.00;;;9.90
30765;BMP180;494;48.744;10.106;2023-11-18T09:47:26;96021.00;;;10.00
30765;BMP180;494;48.744;10.106;2023-11-18T09:50:28;96461.00;;;10.10
30765;BMP180;494;48.744;10.106;2023-11-18T09:53:38;96334.00;;;9.80
30765;BMP180;494;48.744;10.106;2023-11-18T09:56:47;96513.00;;;10.40
30765;BMP180;494;48.744;10.106;2023-11-18T09:59:39;96128.00;;;10.40
30765;BMP180;494;48.744;10.106;2023-11-18T10:02:40;95915.00;;;12.10
30765;BMP180;494;48.744;10.106;2023-11-18T10:05:21;96446.00;;;14.50
30765;BMP180;494;48.744;10.106;2023-11-18T10:08:21;96142.00;;;15.60
30765;BMP180;494;48.744;10.106;2023-11-18T10:11:39;96432.00;;;16.70
30765;BMP180;494;48.744;10.106;2023-11-18T10:14:39;96455.00;;;17.20
30765;BMP180;494;48.744;10.106;2023-11-18T10:17:25;96445.00;;;17.80
30765;BMP180;494;48.744;10.106;2023-11-18T10:20:23;96272.00;;;17.30
30765;BMP180;494;48.744;10.106;2023-11-18T10:23:59;96343.00;;;16.10
30765;BMP180;494;48.744;10.106;2023-11-18T11:45:01;96205.00;;;11.20
30765;BMP180;494;48.744;10.106;2023-11-18T11:48:00;96350.00;;;11.80
30765;BMP180;494;48.744;10.106;2023-11-18T11:51:24;96474.00;;;11.90
30765;BMP180;494;48.744;10.106;2023-11-18T11:54:42;96460.00;;;10.40
30765;BMP180;494;48.744;10.106;2023-11-18T11:57:17;96291.00;;;11.70
30765;BMP180;494;48.744;10.106;2023-11-18T12:08:24;96393.00;;;11.70
30765;BMP180;494;48.744;10.106;2023-11-18T12:11:25;95970.00;;;11.80
30765;BMP180;494;48.744;10.106;2023-11-18T12:14:10;96404.00;;;10.90
30765;BMP180;494;48.744;10.106;2023-11-18T12:17:08;96077.00;;;11.20
30765;BMP180;494;48.744;10.106;2023-11-18T12:20:39;96114.00;;;11.30
30765;BMP180;494;48.744;10.106;2023-11-18T12:31:04;96341.00;;;11.00
30765;BMP180;494;48.744;10.106;2023-11-18T12:34:02;96398.00;;;10.80
30765;BMP180;494;48.744;10.106;2023-11-18T12:37:51;96190.00;;;11.00
30765;BMP180;494;48.744;10.106;2023-11-18T12:40:56;95979.00;;;10.10
30765;BMP180;494;48.744;10.106;2023-11-18T12:43:47;96298.00;;;10.90
30765;BMP180;494;48.744;10.106;2023-11-18T13:28:31;96284.00;;;9.10
30765;BMP180;494;48.744;10.106;2023-11-18T13:31:07;95835.00;;;10.10
30765;BMP180;494;48.744;10.106;2023-11-18T13:34:11;96110.00;;;10.30
30765;BMP180;494;48.744;10.106;2023-11-18T13:37:33;96312.00;;;10.00
30765;BMP180;494;48.744;10.106;2023-11-18T13:40:20;96410.00;;;9.40
30765;BMP180;494;48.744;10.106;2023-11-18T13:43:03;96141.00;;;9.80
30765;BMP180;494;48.744;10.106;2023-11-18T13:46:12;96169.00;;;9.80
30765;BMP180;494;48.744;10.106;2023-11-18T13:48:57;96402.00;;;9.90
30765;BMP180;494;48.744;10.106;2023-11-18T13:51:52;95765.00;;;9.50
30765;BMP180;494;48.744;10.106;2023-11-18T13:54:23;96238.00;;;7.40
30765;BMP180;494;48.744;10.106;2023-11-18T13:57:11;96383.00;;;8.60
30765;BMP180;494;48.744;10.106;2023-11-18T13:59:54;96160.00;;;9.00
30765;BMP180;494;48.744;10.106;2023-11-18T14:07:15;96364.00;;;9.00
30765;BMP180;494;48.744;10.106;2023-11-18T14:10:18;95635.00;;;8.60
30765;BMP180;494;48.744;10.106;2023-11-18T14:13:15;96274.00;;;8.40
30765;BMP180;494;48.744;10.106;2023-11-18T14:16:17;96110.00;;;9.10
30765;BMP180;494;48.744;10.106;2023-11-18T14:19:15;95852.00;;;8.90
30765;BMP180;494;48.744;10.106;2023-11-18T14:26:30;96277.00;;;7.70
30765;BMP180;494;48.744;10.106;2023-11-18T14:29:27;95956.00;;;8.40
30765;BMP180;494;48.744;10.106;2023-11-18T14:32:52;96265.00;;;8.80
30765;BMP180;494;48.744;10.106;2023-11-18T14:36:12;96210.00;;;8.90
30765;BMP180;494;48.744;10.106;2023-11-18T14:39:12;96248.00;;;8.90
30765;BMP180;494;48.744;10.106;2023-11-18T14:42:37;96267.00;;;8.30
30765;BMP180;494;48.744;10.106;2023-11-18T14:45:13;96147.00;;;8.60
30765;BMP180;494;48.744;10.106;2023-11-18T14:47:58;95823.00;;;8.10
30765;BMP180;494;48.744;10.106;2023-11-18T14:50:44;96009.00;;;8.90
30765;BMP180;494;48.744;10.106;2023-11-18T14:53:57;96288.00;;;8.00
30765;BMP180;494;48.744;10.106;2023-11-18T14:56:40;96196.00;;;8.20
30765;BMP180;494;48.744;10.106;2023-11-18T15:00:27;96031.00;;;8.90
30765;BMP180;494;48.744;10.106;2023-11-18T15:03:25;96222.00;;;9.00
30765;BMP180;494;48.744;10.106;2023-11-18T15:06:25;95788.00;;;7.60
30765;BMP180;494;48.744;10.106;2023-11-18T15:09:26;96336.00;;;9.10
30765;BMP180;494;48.744;10.106;2023-11-18T15:12:22;95845.00;;;8.50
30765;BMP180;494;48.744;10.106;2023-11-18T17:26:14;96095.00;;;8.80
30765;BMP180;494;48.744;10.106;2023-11-18T17:28:50;96105.00;;;8.40
30765;BMP180;494;48.744;10.106;2023-11-18T17:31:40;96094.00;;;8.70
30765;BMP180;494;48.744;10.106;2023-11-18T17:34:43;96095.00;;;8.70
30765;BMP180;494;48.744;10.106;2023-11-18T17:38:52;95353.00;;;8.70
30765;BMP180;494;48.744;10.106;2023-11-18T18:27:27;95695.00;;;8.20
30765;BMP180;494;48.744;10.106;2023-11-18T18:31:23;95156.00;;;8.20
30765;BMP180;494;48.744;10.106;2023-11-18T19:36:50;95992.00;;;7.90
30765;BMP180;494;48.744;10.106;2023-11-18T19:39:57;95885.00;;;6.50
30765;BMP180;494;48.744;10.106;2023-11-18T19:43:33;95967.00;;;7.80
30765;BMP180;494;48.744;10.106;2023-11-18T19:46:40;95908.00;;;8.00
30765;BMP180;494;48.744;10.106;2023-11-18T19:50:11;95898.00;;;8.00
30765;BMP180;494;48.744;10.106;2023-11-18T19:53:14;95785.00;;;7.90
30765;BMP180;494;48.744;10.106;2023-11-18T19:56:10;95940.00;;;8.00
30765;BMP180;494;48.744;10.106;2023-11-18T19:58:53;95662.00;;;7.60
30765;BMP180;494;48.744;10.106;2023-11-18T20:01:51;95937.00;;;7.20
30765;BMP180;494;48.744;10.106;2023-11-18T20:04:36;95847.00;;;7.60
30765;BMP180;494;48.744;10.106;2023-11-18T20:07:14;95840.00;;;7.90
30765;BMP180;494;48.744;10.106;2023-11-18T20:10:21;95829.00;;;7.80
30765;BMP180;494;48.744;10.106;2023-11-18T20:13:03;95698.00;;;7.50
30765;BMP180;494;48.744;10.106;2023-11-18T20:15:33;95841.00;;;7.80
30765;BMP180;494;48.744;10.106;2023-11-18T20:18:02;95885.00;;;7.90
30765;BMP180;494;48.744;10.106;2023-11-18T20:20:32;95844.00;;;7.90
30765;BMP180;494;48.744;10.106;2023-11-18T20:23:04;95848.00;;;7.80
30765;BMP180;494;48.744;10.106;2023-11-18T20:25:35;95881.00;;;7.80
30765;BMP180;494;48.744;10.106;2023-11-18T20:28:14;95809.00;;;7.90
30765;BMP180;494;48.744;10.106;2023-11-18T20:30:44;95757.00;;;8.00
30765;BMP180;494;48.744;10.106;2023-11-18T20:33:16;95392.00;;;7.90
30765;BMP180;494;48.744;10.106;2023-11-18T20:35:47;95659.00;;;7.90
30765;BMP180;494;48.744;10.106;2023-11-18T20:38:21;95611.00;;;7.80
30765;BMP180;494;48.744;10.106;2023-11-18T20:41:08;95434.00;;;6.90
30765;BMP180;494;48.744;10.106;2023-11-18T20:43:42;95690.00;;;7.80
30765;BMP180;494;48.744;10.106;2023-11-18T20:46:14;95631.00;;;8.00
30765;BMP180;494;48.744;10.106;2023-11-18T20:48:46;95775.00;;;7.80
30765;BMP180;494;48.744;10.106;2023-11-18T20:51:16;95854.00;;;8.10
30765;BMP180;494;48.744;10.106;2023-11-18T20:53:45;95798.00;;;8.00
30765;BMP180;494;48.744;10.106;2023-11-18T20:56:16;95739.00;;;8.20
30765;BMP180;494;48.744;10.106;2023-11-18T20:58:55;95060.00;;;7.90
30765;BMP180;494;48.744;10.106;2023-11-18T21:01:28;95314.00;;;8.20
30765;BMP180;494;48.744;10.106;2023-11-18T21:03:57;95833.00;;;8.40
30765;BMP180;494;48.744;10.106;2023-11-18T21:06:27;95810.00;;;8.50
30765;BMP180;494;48.744;10.106;2023-11-18T21:09:02;95636.00;;;8.10
30765;BMP180;494;48.744;10.106;2023-11-18T21:11:48;95798.00;;;8.30
30765;BMP180;494;48.744;10.106;2023-11-18T21:14:41;95819.00;;;8.20
30765;BMP180;494;48.744;10.106;2023-11-18T21:17:16;95765.00;;;7.80
30765;BMP180;494;48.744;10.106;2023-11-18T21:19:52;95352.00;;;8.30
30765;BMP180;494;48.744;10.106;2023-11-18T21:22:21;95417.00;;;8.30
30765;BMP180;494;48.744;10.106;2023-11-18T21:24:54;95787.00;;;8.30
30765;BMP180;494;48.744;10.106;2023-11-18T21:27:29;95765.00;;;8.30
30765;BMP180;494;48.744;10.106;2023-11-18T21:30:00;95447.00;;;7.90
30765;BMP180;494;48.744;10.106;2023-11-18T21:32:32;95758.00;;;8.30
30765;BMP180;494;48.744;10.106;2023-11-18T21:35:02;95773.00;;;7.90
30765;BMP180;494;48.744;10.106;2023-11-18T21:37:38;95753.00;;;8.20
30765;BMP180;494;48.744;10.106;2023-11-18T21:40:09;95528.00;;;8.20
30765;BMP180;494;48.744;10.106;2023-11-18T21:42:42;95611.00;;;8.20
30765;BMP180;494;48.744;10.106;2023-11-18T21:45:13;95664.00;;;8.40
30765;BMP180;494;48.744;10.106;2023-11-18T21:47:42;95584.00;;;7.70
30765;BMP180;494;48.744;10.106;2023-11-18T21:50:18;95738.00;;;8.30
30765;BMP180;494;48.744;10.106;2023-11-18T21:52:49;95555.00;;;7.70
30765;BMP180;494;48.744;10.106;2023-11-18T21:55:20;95741.00;;;8.30
30765;BMP180;494;48.744;10.106;2023-11-18T21:57:52;95726.00;;;8.00
30765;BMP180;494;48.744;10.106;2023-11-18T22:00:21;95404.00;;;8.30
30765;BMP180;494;48.744;10.106;2023-11-18T22:02:51;95628.00;;;8.20
30765;BMP180;494;48.744;10.106;2023-11-18T22:05:20;95634.00;;;8.00
30765;BMP180;494;48.744;10.106;2023-11-18T22:07:51;95668.00;;;8.40
30765;BMP180;494;48.744;10.106;2023-11-18T22:10:20;95664.00;;;8.20
30765;BMP180;494;48.744;10.106;2023-11-18T22:12:55;95654.00;;;8.40
30765;BMP180;494;48.744;10.106;2023-11-18T22:15:40;95460.00;;;8.30
30765;BMP180;494;48.744;10.106;2023-11-18T22:20:55;95630.00;;;8.30
30765;BMP180;494;48.744;10.106;2023-11-18T22:23:25;95631.00;;;8.30
30765;BMP180;494;48.744;10.106;2023-11-18T22:26:06;95688.00;;;8.40
30765;BMP180;494;48.744;10.106;2023-11-18T22:31:11;95716.00;;;8.60
30765;BMP180;494;48.744;10.106;2023-11-18T22:34:06;95703.00;;;8.60
30765;BMP180;494;48.744;10.106;2023-11-18T22:36:39;95684.00;;;8.00
30765;BMP180;494;48.744;10.106;2023-11-18T22:39:14;95322.00;;;8.50
30765;BMP180;494;48.744;10.106;2023-11-18T22:44:39;95636.00;;;8.70
30765;BMP180;494;48.744;10.106;2023-11-18T22:47:14;95637.00;;;8.00
30765;BMP180;494;48.744;10.106;2023-11-18T22:49:50;95476.00;;;8.50
30765;BMP180;494;48.744;10.106;2023-11-18T22:52:23;95563.00;;;7.90
30765;BMP180;494;48.744;10.106;2023-11-18T22:55:00;95729.00;;;8.60
30765;BMP180;494;48.744;10.106;2023-11-18T22:57:46;95681.00;;;8.20
30765;BMP180;494;48.744;10.106;2023-11-18T23:12:39;95617.00;;;7.60
30765;BMP180;494;48.744;10.106;2023-11-18T23:15:10;95693.00;;;8.60
30765;BMP180;494;48.744;10.106;2023-11-18T23:17:40;95489.00;;;8.80
30765;BMP180;494;48.744;10.106;2023-11-18T23:20:12;95677.00;;;8.80
30765;BMP180;494;48.744;10.106;2023-11-18T23:23:13;95658.00;;;8.70
30765;BMP180;494;48.744;10.106;2023-11-18T23:29:23;95647.00;;;8.60
30765;BMP180;494;48.744;10.106;2023-11-18T23:40:50;95391.00;;;8.50
30765;BMP180;494;48.744;10.106;2023-11-18T23:43:35;95462.00;;;8.30
30765;BMP180;494;48.744;10.106;2023-11-18T23:46:09;95317.00;;;7.80
30765;BMP180;494;48.744;10.106;2023-11-18T23:48:38;95634.00;;;8.50
30765;BMP180;494;48.744;10.106;2023-11-18T23:51:10;95501.00;;;8.50
30765;BMP180;494;48.744;10.106;2023-11-18T23:53:42;95645.00;;;8.40
30765;BMP180;494;48.744;10.106;2023-11-18T23:56:12;95337.00;;;8.30
30765;BMP180;494;48.744;10.106;2023-11-18T23:58:41;95391.00;;;8.30
